createdAt,value
2017-06-12T00:00:01.365Z,56.50
2017-06-12T00:02:28.986Z,56.50
2017-06-12T00:04:56.896Z,56.90
2017-06-12T00:07:24.566Z,56.70
2017-06-12T00:09:52.243Z,56.80
2017-06-12T00:12:19.871Z,56.90
2017-06-12T00:14:47.542Z,57.00
2017-06-12T00:17:15.306Z,57.00
2017-06-12T00:19:42.969Z,57.30
2017-06-12T00:22:10.836Z,57.30
2017-06-12T00:24:38.522Z,57.50
2017-06-12T00:27:06.191Z,57.60
2017-06-12T00:29:33.951Z,57.60
2017-06-12T00:32:01.578Z,57.60
2017-06-12T00:34:29.350Z,57.70
2017-06-12T00:36:57.018Z,57.60
2017-06-12T00:39:24.700Z,57.80
2017-06-12T00:41:52.333Z,57.70
2017-06-12T00:44:20.100Z,57.60
2017-06-12T00:46:47.791Z,57.60
2017-06-12T00:49:15.431Z,57.60
2017-06-12T00:51:43.115Z,57.60
2017-06-12T00:54:10.906Z,57.80
2017-06-12T00:56:38.633Z,57.60
2017-06-12T00:59:06.306Z,58.00
2017-06-12T01:01:33.967Z,57.90
2017-06-12T01:04:01.735Z,57.90
2017-06-12T01:06:29.571Z,58.30
2017-06-12T01:08:57.201Z,58.10
2017-06-12T01:11:24.909Z,58.20
2017-06-12T01:13:52.657Z,58.10
2017-06-12T01:16:20.422Z,58.10
2017-06-12T01:18:48.189Z,58.40
2017-06-12T01:21:15.972Z,58.10
2017-06-12T01:23:43.611Z,58.20
2017-06-12T01:26:11.297Z,58.40
2017-06-12T01:28:38.969Z,58.50
2017-06-12T01:31:06.698Z,58.60
2017-06-12T01:33:34.383Z,58.30
2017-06-12T01:36:02.227Z,58.50
2017-06-12T01:38:29.991Z,58.90
2017-06-12T01:40:57.770Z,58.80
2017-06-12T01:43:25.545Z,58.90
2017-06-12T01:45:53.592Z,59.00
2017-06-12T01:48:21.358Z,59.20
2017-06-12T01:50:49.225Z,59.30
2017-06-12T01:53:16.985Z,59.30
2017-06-12T01:55:44.665Z,59.60
2017-06-12T01:58:12.330Z,59.70
2017-06-12T02:00:39.995Z,59.70
2017-06-12T02:03:07.735Z,59.80
2017-06-12T02:05:35.399Z,59.70
2017-06-12T02:08:03.025Z,59.60
2017-06-12T02:10:30.649Z,59.70
2017-06-12T02:12:58.328Z,59.60
2017-06-12T02:15:26.739Z,59.50
2017-06-12T02:17:54.361Z,59.50
2017-06-12T02:20:22.806Z,59.40
2017-06-12T02:22:50.487Z,59.40
2017-06-12T02:25:18.228Z,59.50
2017-06-12T02:27:46.015Z,59.60
2017-06-12T02:30:13.757Z,59.70
2017-06-12T02:32:41.383Z,59.60
2017-06-12T02:35:09.068Z,59.60
2017-06-12T02:37:36.703Z,59.80
2017-06-12T02:40:04.337Z,59.70
2017-06-12T02:42:32.013Z,59.70
2017-06-12T02:45:00.406Z,59.60
2017-06-12T02:47:28.025Z,59.60
2017-06-12T02:49:55.704Z,59.60
2017-06-12T02:52:23.334Z,59.70
2017-06-12T02:54:50.988Z,59.70
2017-06-12T02:57:18.679Z,59.60
2017-06-12T02:59:46.304Z,59.80
2017-06-12T03:02:13.940Z,59.70
2017-06-12T03:04:41.609Z,59.90
2017-06-12T03:07:09.230Z,59.80
2017-06-12T03:09:37.635Z,59.80
2017-06-12T03:12:05.321Z,59.80
2017-06-12T03:14:32.959Z,59.80
2017-06-12T03:17:00.581Z,59.80
2017-06-12T03:19:28.250Z,59.70
2017-06-12T03:21:55.885Z,59.60
2017-06-12T03:24:23.509Z,59.70
2017-06-12T03:26:51.177Z,59.70
2017-06-12T03:29:18.796Z,59.80
2017-06-12T03:31:46.418Z,59.80
2017-06-12T03:34:14.103Z,59.80
2017-06-12T03:36:41.739Z,59.80
2017-06-12T03:39:09.376Z,59.80
2017-06-12T03:41:37.065Z,59.90
2017-06-12T03:44:04.694Z,59.90
2017-06-12T03:46:32.317Z,59.80
2017-06-12T03:48:59.989Z,59.90
2017-06-12T03:51:27.635Z,59.90
2017-06-12T03:53:55.261Z,60.00
2017-06-12T03:56:22.963Z,60.20
2017-06-12T03:58:50.585Z,60.20
2017-06-12T04:01:18.209Z,59.90
2017-06-12T04:03:45.891Z,60.00
2017-06-12T04:06:13.535Z,60.00
2017-06-12T04:08:41.925Z,60.00
2017-06-12T04:11:09.597Z,59.90
2017-06-12T04:13:37.239Z,59.70
2017-06-12T04:16:04.867Z,59.70
2017-06-12T04:18:32.547Z,59.80
2017-06-12T04:21:00.191Z,59.70
2017-06-12T04:23:27.834Z,59.70
2017-06-12T04:25:55.509Z,59.80
2017-06-12T04:28:23.151Z,59.60
2017-06-12T04:30:50.784Z,59.60
2017-06-12T04:33:18.468Z,59.50
2017-06-12T04:35:46.109Z,59.60
2017-06-12T04:38:13.751Z,59.60
2017-06-12T04:40:41.436Z,59.60
2017-06-12T04:43:09.071Z,59.60
2017-06-12T04:45:37.471Z,59.50
2017-06-12T04:48:05.144Z,59.50
2017-06-12T04:50:32.787Z,59.50
2017-06-12T04:53:01.202Z,59.50
2017-06-12T04:55:28.888Z,59.50
2017-06-12T04:57:56.523Z,59.40
2017-06-12T05:00:24.142Z,59.50
2017-06-12T05:02:51.829Z,59.50
2017-06-12T05:05:19.507Z,59.60
2017-06-12T05:07:47.148Z,59.50
2017-06-12T05:10:14.835Z,59.50
2017-06-12T05:12:42.467Z,60.10
2017-06-12T05:15:10.104Z,59.60
2017-06-12T05:17:40.124Z,59.30
2017-06-12T05:20:07.753Z,59.60
2017-06-12T05:22:35.389Z,59.50
2017-06-12T05:25:03.075Z,59.50
2017-06-12T05:27:30.718Z,59.50
2017-06-12T05:29:58.342Z,59.60
2017-06-12T05:32:26.791Z,59.70
2017-06-12T05:34:54.413Z,59.60
2017-06-12T05:37:22.131Z,59.60
2017-06-12T05:39:49.962Z,59.70
2017-06-12T05:42:17.727Z,59.50
2017-06-12T05:44:45.491Z,59.80
2017-06-12T05:47:13.366Z,59.80
2017-06-12T05:49:40.999Z,59.80
2017-06-12T05:52:08.625Z,59.90
2017-06-12T05:54:39.424Z,59.70
2017-06-12T05:57:07.062Z,59.60
2017-06-12T05:59:36.696Z,59.60
2017-06-12T06:02:04.417Z,59.50
2017-06-12T06:04:32.130Z,59.50
2017-06-12T06:06:59.872Z,59.40
2017-06-12T06:09:27.663Z,59.10
2017-06-12T06:11:55.302Z,59.30
2017-06-12T06:14:22.983Z,59.30
2017-06-12T06:16:50.828Z,59.10
2017-06-12T06:19:18.623Z,59.10
2017-06-12T06:21:46.567Z,59.20
2017-06-12T06:24:15.151Z,59.00
2017-06-12T06:26:42.916Z,58.90
2017-06-12T06:29:10.584Z,58.90
2017-06-12T06:31:38.327Z,58.80
2017-06-12T06:34:05.965Z,58.70
2017-06-12T06:36:33.589Z,58.40
2017-06-12T06:39:01.288Z,58.60
2017-06-12T06:41:28.917Z,58.50
2017-06-12T06:43:57.309Z,58.50
2017-06-12T06:46:25.752Z,58.40
2017-06-12T06:48:53.382Z,58.30
2017-06-12T06:51:21.024Z,58.40
2017-06-12T06:53:48.712Z,58.20
2017-06-12T06:56:16.342Z,58.20
2017-06-12T06:58:44.001Z,58.10
2017-06-12T07:01:12.459Z,58.00
2017-06-12T07:03:40.190Z,58.00
2017-06-12T07:06:07.880Z,57.60
2017-06-12T07:08:35.640Z,57.30
2017-06-12T07:11:03.383Z,57.80
2017-06-12T07:13:31.005Z,57.10
2017-06-12T07:15:58.696Z,56.90
2017-06-12T07:18:26.326Z,56.60
2017-06-12T07:20:53.964Z,56.70
2017-06-12T07:23:22.408Z,57.30
2017-06-12T07:25:50.029Z,56.70
2017-06-12T07:28:17.665Z,56.70
2017-06-12T07:30:46.120Z,56.30
2017-06-12T07:33:13.755Z,56.70
2017-06-12T07:35:41.405Z,56.50
2017-06-12T07:38:09.083Z,56.60
2017-06-12T07:40:36.730Z,56.40
2017-06-12T07:43:04.374Z,56.00
2017-06-12T07:45:32.082Z,56.10
2017-06-12T07:47:59.721Z,55.70
2017-06-12T07:50:27.349Z,55.80
2017-06-12T07:52:56.093Z,55.40
2017-06-12T07:55:23.856Z,55.30
2017-06-12T07:57:51.477Z,55.30
2017-06-12T08:00:19.154Z,55.20
2017-06-12T08:02:46.791Z,55.30
2017-06-12T08:05:15.238Z,54.90
2017-06-12T08:07:42.935Z,54.90
2017-06-12T08:10:11.391Z,54.80
2017-06-12T08:12:39.127Z,54.60
2017-06-12T08:15:06.807Z,54.50
2017-06-12T08:17:34.469Z,54.40
2017-06-12T08:20:02.096Z,54.40
2017-06-12T08:22:29.878Z,54.50
2017-06-12T08:24:57.501Z,54.40
2017-06-12T08:27:25.303Z,54.40
2017-06-12T08:29:52.974Z,54.50
2017-06-12T08:32:20.605Z,54.60
2017-06-12T08:34:48.312Z,54.60
2017-06-12T08:37:16.155Z,54.60
2017-06-12T08:39:43.798Z,54.00
2017-06-12T08:42:11.431Z,54.30
2017-06-12T08:44:39.984Z,53.70
2017-06-12T08:47:07.724Z,53.60
2017-06-12T08:49:35.346Z,53.40
2017-06-12T08:52:03.068Z,53.10
2017-06-12T08:54:30.732Z,52.60
2017-06-12T08:56:58.470Z,52.10
2017-06-12T08:59:26.163Z,51.40
2017-06-12T09:01:53.913Z,51.50
2017-06-12T09:04:21.541Z,51.60
2017-06-12T09:06:49.247Z,51.50
2017-06-12T09:09:16.992Z,51.60
2017-06-12T09:11:44.680Z,50.70
2017-06-12T09:14:12.350Z,50.00
2017-06-12T09:16:40.816Z,50.20
2017-06-12T09:19:08.626Z,50.20
2017-06-12T09:21:36.430Z,50.10
2017-06-12T09:24:04.107Z,50.20
2017-06-12T09:26:31.775Z,50.10
2017-06-12T09:28:59.507Z,49.60
2017-06-12T09:31:27.157Z,49.30
2017-06-12T09:33:55.363Z,49.50
2017-06-12T09:36:23.362Z,49.40
2017-06-12T09:38:51.835Z,49.50
2017-06-12T09:41:20.239Z,49.40
2017-06-12T09:43:48.246Z,49.30
2017-06-12T09:46:16.124Z,49.30
2017-06-12T09:48:43.794Z,48.90
2017-06-12T09:51:11.472Z,48.80
2017-06-12T09:53:40.019Z,48.10
2017-06-12T09:56:07.729Z,48.30
2017-06-12T09:58:36.236Z,48.00
2017-06-12T10:01:04.138Z,47.90
2017-06-12T10:03:31.945Z,48.10
2017-06-12T10:06:00.399Z,48.10
2017-06-12T10:08:28.045Z,48.10
2017-06-12T10:10:55.697Z,48.20
2017-06-12T10:13:23.383Z,47.30
2017-06-12T10:15:51.023Z,47.30
2017-06-12T10:18:18.642Z,47.40
2017-06-12T10:20:46.349Z,47.60
2017-06-12T10:23:14.110Z,47.60
2017-06-12T10:25:41.778Z,47.50
2017-06-12T10:28:09.503Z,47.80
2017-06-12T10:30:37.167Z,48.30
2017-06-12T10:33:04.791Z,47.20
2017-06-12T10:35:32.465Z,47.00
2017-06-12T10:38:00.871Z,46.40
2017-06-12T10:40:28.557Z,46.30
2017-06-12T10:42:56.226Z,46.60
2017-06-12T10:45:23.846Z,46.80
2017-06-12T10:47:51.532Z,46.80
2017-06-12T10:50:19.214Z,46.40
2017-06-12T10:52:46.842Z,46.30
2017-06-12T10:55:14.476Z,46.30
2017-06-12T10:57:42.927Z,45.80
2017-06-12T11:00:10.556Z,45.80
2017-06-12T11:02:38.198Z,45.90
2017-06-12T11:05:05.883Z,45.40
2017-06-12T11:07:33.505Z,45.00
2017-06-12T11:10:01.926Z,43.70
2017-06-12T11:12:29.619Z,43.60
2017-06-12T11:14:57.248Z,43.80
2017-06-12T11:17:24.948Z,44.20
2017-06-12T11:19:52.621Z,43.20
2017-06-12T11:22:20.250Z,43.20
2017-06-12T11:24:47.908Z,43.30
2017-06-12T11:27:15.583Z,43.50
2017-06-12T11:29:43.232Z,44.00
2017-06-12T11:32:10.881Z,44.40
2017-06-12T11:34:38.546Z,44.70
2017-06-12T11:37:06.169Z,45.00
2017-06-12T11:39:34.584Z,43.90
2017-06-12T11:42:02.268Z,43.90
2017-06-12T11:44:29.924Z,44.10
2017-06-12T11:46:57.571Z,43.00
2017-06-12T11:49:25.238Z,43.30
2017-06-12T11:51:52.876Z,43.70
2017-06-12T11:54:20.512Z,43.50
2017-06-12T11:56:48.950Z,42.70
2017-06-12T11:59:16.599Z,42.60
2017-06-12T12:01:44.229Z,42.70
2017-06-12T12:04:11.893Z,42.40
2017-06-12T12:06:39.532Z,42.50
2017-06-12T12:09:07.158Z,42.80
2017-06-12T12:11:34.830Z,42.60
2017-06-12T12:14:02.484Z,42.60
2017-06-12T12:16:30.128Z,43.00
2017-06-12T12:18:57.805Z,43.20
2017-06-12T12:21:25.447Z,43.00
2017-06-12T12:23:53.143Z,43.40
2017-06-12T12:26:20.824Z,43.30
2017-06-12T12:28:48.483Z,43.10
2017-06-12T12:31:16.109Z,43.40
2017-06-12T12:33:43.873Z,42.80
2017-06-12T12:36:11.505Z,42.50
2017-06-12T12:38:39.125Z,42.50
2017-06-12T12:41:06.816Z,42.50
2017-06-12T12:43:34.440Z,42.70
2017-06-12T12:46:02.080Z,42.90
2017-06-12T12:48:29.749Z,42.90
2017-06-12T12:50:57.387Z,43.20
2017-06-12T12:53:25.023Z,42.80
2017-06-12T12:55:52.711Z,43.00
2017-06-12T12:58:20.341Z,43.20
2017-06-12T13:00:48.748Z,43.00
2017-06-12T13:03:16.428Z,42.90
2017-06-12T13:05:44.045Z,42.90
2017-06-12T13:08:11.690Z,42.60
2017-06-12T13:10:40.153Z,41.60
2017-06-12T13:13:07.777Z,41.60
2017-06-12T13:15:35.411Z,41.60
2017-06-12T13:18:03.095Z,40.80
2017-06-12T13:20:30.721Z,40.80
2017-06-12T13:22:59.110Z,41.30
2017-06-12T13:25:26.827Z,41.20
2017-06-12T13:27:54.445Z,40.80
2017-06-12T13:30:22.080Z,40.50
2017-06-12T13:32:50.529Z,40.70
2017-06-12T13:35:18.167Z,40.70
2017-06-12T13:37:45.789Z,40.60
2017-06-12T13:40:14.221Z,40.70
2017-06-12T13:42:41.860Z,40.70
2017-06-12T13:45:09.495Z,40.70
2017-06-12T13:47:37.183Z,40.20
2017-06-12T13:50:04.813Z,40.10
2017-06-12T13:52:33.227Z,40.70
2017-06-12T13:55:00.908Z,40.60
2017-06-12T13:57:28.545Z,40.60
2017-06-12T13:59:56.219Z,40.60
2017-06-12T14:02:24.018Z,40.90
2017-06-12T14:04:51.676Z,41.00
2017-06-12T14:07:19.302Z,41.00
2017-06-12T14:09:46.973Z,41.20
2017-06-12T14:12:14.601Z,41.40
2017-06-12T14:14:42.239Z,41.60
2017-06-12T14:17:10.078Z,41.70
2017-06-12T14:19:38.509Z,42.20
2017-06-12T14:22:06.234Z,42.10
2017-06-12T14:24:33.931Z,42.30
2017-06-12T14:27:01.558Z,42.40
2017-06-12T14:29:29.181Z,42.50
2017-06-12T14:31:56.854Z,42.60
2017-06-12T14:34:24.481Z,42.70
2017-06-12T14:36:52.124Z,42.90
2017-06-12T14:39:20.567Z,43.90
2017-06-12T14:41:48.194Z,43.80
2017-06-12T14:44:15.841Z,43.80
2017-06-12T14:46:43.518Z,43.80
2017-06-12T14:49:11.156Z,43.90
2017-06-12T14:51:38.796Z,44.00
2017-06-12T14:54:06.467Z,44.00
2017-06-12T14:56:34.108Z,44.00
2017-06-12T14:59:01.743Z,44.00
2017-06-12T15:01:29.428Z,43.90
2017-06-12T15:03:57.067Z,43.90
2017-06-12T15:06:24.711Z,44.00
2017-06-12T15:08:52.386Z,43.80
2017-06-12T15:11:20.022Z,43.80
2017-06-12T15:13:47.654Z,43.70
2017-06-12T15:16:15.326Z,43.70
2017-06-12T15:18:42.954Z,43.70
2017-06-12T15:21:10.579Z,44.30
2017-06-12T15:23:38.269Z,43.70
2017-06-12T15:26:05.891Z,43.70
2017-06-12T15:28:33.558Z,44.00
2017-06-12T15:31:01.224Z,44.80
2017-06-12T15:33:28.849Z,45.10
2017-06-12T15:35:56.491Z,45.10
2017-06-12T15:38:25.089Z,45.00
2017-06-12T15:40:52.938Z,45.00
2017-06-12T15:43:20.565Z,45.20
2017-06-12T15:45:48.235Z,45.20
2017-06-12T15:48:15.865Z,45.30
2017-06-12T15:50:44.262Z,45.50
2017-06-12T15:53:11.948Z,45.40
2017-06-12T15:55:39.584Z,45.60
2017-06-12T15:58:07.206Z,45.70
2017-06-12T16:00:34.980Z,45.80
2017-06-12T16:03:02.620Z,45.60
2017-06-12T16:05:30.261Z,45.40
2017-06-12T16:07:58.151Z,45.40
2017-06-12T16:10:25.928Z,45.30
2017-06-12T16:12:53.733Z,44.90
2017-06-12T16:15:21.566Z,44.50
2017-06-12T16:17:49.323Z,44.50
2017-06-12T16:20:17.085Z,44.60
2017-06-12T16:22:44.929Z,44.50
2017-06-12T16:25:12.676Z,44.60
2017-06-12T16:27:40.430Z,44.60
2017-06-12T16:30:08.261Z,44.60
2017-06-12T16:32:36.799Z,44.40
2017-06-12T16:35:04.546Z,44.30
2017-06-12T16:37:32.343Z,44.30
2017-06-12T16:40:00.085Z,44.30
2017-06-12T16:42:27.840Z,44.40
2017-06-12T16:44:55.691Z,44.40
2017-06-12T16:47:23.479Z,44.40
2017-06-12T16:49:51.242Z,44.50
2017-06-12T16:52:19.059Z,44.60
2017-06-12T16:54:46.838Z,44.70
2017-06-12T16:57:14.648Z,44.70
2017-06-12T16:59:42.506Z,44.60
2017-06-12T17:02:10.276Z,44.70
2017-06-12T17:04:38.074Z,44.70
2017-06-12T17:07:06.531Z,44.60
2017-06-12T17:09:34.170Z,44.60
2017-06-12T17:12:01.934Z,44.70
2017-06-12T17:14:29.764Z,44.40
2017-06-12T17:16:58.263Z,44.60
2017-06-12T17:19:26.000Z,44.50
2017-06-12T17:21:53.803Z,45.20
2017-06-12T17:24:21.511Z,46.80
2017-06-12T17:26:49.252Z,47.80
2017-06-12T17:29:17.046Z,48.70
2017-06-12T17:31:44.784Z,49.20
2017-06-12T17:34:12.490Z,49.20
2017-06-12T17:36:41.061Z,49.90
2017-06-12T17:39:09.603Z,50.70
2017-06-12T17:41:37.367Z,50.10
2017-06-12T17:44:05.225Z,50.50
2017-06-12T17:46:32.962Z,50.40
2017-06-12T17:49:00.720Z,50.70
2017-06-12T17:51:28.856Z,50.70
2017-06-12T17:53:56.640Z,50.50
2017-06-12T17:56:25.055Z,51.00
2017-06-12T17:58:53.025Z,51.00
2017-06-12T18:01:20.661Z,50.70
2017-06-12T18:03:48.292Z,50.80
2017-06-12T18:06:15.965Z,51.10
2017-06-12T18:08:43.595Z,51.20
2017-06-12T18:11:11.221Z,51.10
2017-06-12T18:13:38.893Z,51.40
2017-06-12T18:16:06.529Z,51.40
2017-06-12T18:18:34.932Z,51.20
2017-06-12T18:21:02.616Z,51.20
2017-06-12T18:23:30.247Z,51.40
2017-06-12T18:25:57.892Z,51.50
2017-06-12T18:28:25.577Z,51.30
2017-06-12T18:30:53.237Z,51.50
2017-06-12T18:33:20.880Z,51.50
2017-06-12T18:35:49.339Z,51.50
2017-06-12T18:38:16.982Z,51.40
2017-06-12T18:40:44.619Z,51.40
2017-06-12T18:43:13.947Z,51.50
2017-06-12T18:45:41.574Z,51.50
2017-06-12T18:48:09.204Z,51.40
2017-06-12T18:50:36.883Z,51.40
2017-06-12T18:53:04.527Z,51.40
2017-06-12T18:55:33.076Z,51.40
2017-06-12T18:58:00.896Z,51.40
2017-06-12T19:00:28.664Z,51.40
2017-06-12T19:02:57.272Z,51.30
2017-06-12T19:05:25.211Z,51.40
2017-06-12T19:07:52.992Z,51.20
2017-06-12T19:10:20.764Z,51.30
2017-06-12T19:12:48.600Z,51.30
2017-06-12T19:15:16.360Z,51.20
2017-06-12T19:17:44.169Z,51.20
2017-06-12T19:20:11.988Z,51.30
2017-06-12T19:22:39.737Z,51.30
2017-06-12T19:25:08.355Z,51.40
2017-06-12T19:27:36.190Z,51.30
2017-06-12T19:30:04.732Z,51.30
2017-06-12T19:32:32.517Z,51.20
2017-06-12T19:35:00.370Z,51.20
2017-06-12T19:37:28.191Z,51.30
2017-06-12T19:39:55.995Z,51.40
2017-06-12T19:42:23.864Z,51.30
2017-06-12T19:44:51.677Z,51.30
2017-06-12T19:47:19.460Z,51.30
2017-06-12T19:49:47.303Z,52.00
2017-06-12T19:52:15.872Z,52.50
2017-06-12T19:54:44.505Z,52.80
2017-06-12T19:57:12.134Z,52.30
2017-06-12T19:59:40.680Z,52.40
2017-06-12T20:02:08.506Z,52.30
2017-06-12T20:04:36.283Z,52.60
2017-06-12T20:07:04.114Z,52.50
2017-06-12T20:09:32.646Z,52.60
2017-06-12T20:12:00.417Z,52.50
2017-06-12T20:14:28.227Z,52.20
2017-06-12T20:16:55.988Z,52.50
2017-06-12T20:19:23.836Z,52.60
2017-06-12T20:21:51.563Z,52.60
2017-06-12T20:24:19.353Z,52.50
2017-06-12T20:26:47.183Z,52.50
2017-06-12T20:29:14.972Z,52.60
2017-06-12T20:31:42.806Z,52.40
2017-06-12T20:34:10.567Z,52.40
2017-06-12T20:36:38.359Z,52.30
2017-06-12T20:39:06.028Z,52.40
2017-06-12T20:41:33.670Z,52.50
2017-06-12T20:44:01.514Z,52.30
2017-06-12T20:46:29.344Z,52.40
2017-06-12T20:48:57.124Z,52.40
2017-06-12T20:51:24.968Z,52.40
2017-06-12T20:53:52.725Z,52.40
2017-06-12T20:56:20.493Z,52.50
2017-06-12T20:58:48.307Z,52.50
2017-06-12T21:01:16.089Z,52.40
2017-06-12T21:03:43.886Z,52.30
2017-06-12T21:06:11.708Z,52.30
2017-06-12T21:08:39.489Z,52.30
2017-06-12T21:11:07.232Z,52.30
2017-06-12T21:13:35.068Z,52.30
2017-06-12T21:16:03.600Z,52.40
2017-06-12T21:18:31.340Z,52.40
2017-06-12T21:20:59.179Z,52.40
2017-06-12T21:23:27.731Z,52.40
2017-06-12T21:25:55.526Z,52.30
2017-06-12T21:28:24.144Z,52.30
2017-06-12T21:30:51.903Z,52.20
2017-06-12T21:33:19.663Z,52.20
2017-06-12T21:35:47.509Z,52.30
2017-06-12T21:38:16.019Z,52.40
2017-06-12T21:40:43.818Z,52.40
2017-06-12T21:43:11.649Z,52.50
2017-06-12T21:45:39.608Z,52.40
2017-06-12T21:48:07.388Z,52.60
2017-06-12T21:50:35.257Z,52.90
2017-06-12T21:53:03.038Z,53.20
2017-06-12T21:55:30.802Z,53.10
2017-06-12T21:57:58.623Z,53.10
2017-06-12T22:00:27.027Z,53.00
2017-06-12T22:02:54.650Z,53.00
2017-06-12T22:05:23.104Z,52.90
2017-06-12T22:07:50.821Z,52.90
2017-06-12T22:10:18.446Z,53.00
2017-06-12T22:12:46.128Z,53.00
2017-06-12T22:15:14.518Z,53.40
2017-06-12T22:17:42.155Z,53.30
2017-06-12T22:20:09.851Z,53.40
2017-06-12T22:22:37.473Z,53.20
2017-06-12T22:25:05.107Z,53.10
2017-06-12T22:27:32.788Z,53.10
2017-06-12T22:30:00.410Z,53.10
2017-06-12T22:32:28.044Z,53.20
2017-06-12T22:34:55.737Z,53.10
2017-06-12T22:37:23.358Z,52.90
2017-06-12T22:39:51.760Z,53.00
2017-06-12T22:42:19.585Z,52.90
2017-06-12T22:44:47.246Z,52.90
2017-06-12T22:47:14.891Z,52.90
2017-06-12T22:49:42.574Z,52.90
2017-06-12T22:52:10.198Z,52.90
2017-06-12T22:54:37.964Z,53.00
2017-06-12T22:57:05.637Z,53.00
2017-06-12T22:59:33.389Z,52.90
2017-06-12T23:02:01.156Z,53.10
2017-06-12T23:04:29.022Z,53.00
2017-06-12T23:06:56.797Z,53.00
2017-06-12T23:09:24.475Z,53.20
2017-06-12T23:11:52.211Z,53.10
2017-06-12T23:14:19.841Z,53.10
2017-06-12T23:16:47.559Z,53.20
2017-06-12T23:19:15.403Z,53.20
2017-06-12T23:21:48.827Z,53.40
2017-06-12T23:24:16.586Z,53.30
2017-06-12T23:26:44.246Z,53.30
2017-06-12T23:29:11.912Z,53.30
2017-06-12T23:31:39.605Z,53.30
2017-06-12T23:34:08.134Z,53.30
2017-06-12T23:36:35.775Z,53.20
2017-06-12T23:39:03.481Z,53.20
2017-06-12T23:41:31.151Z,53.20
2017-06-12T23:43:58.882Z,53.20
2017-06-12T23:46:26.646Z,53.20
2017-06-12T23:48:54.270Z,53.10
2017-06-12T23:51:22.072Z,53.20
2017-06-12T23:53:49.837Z,53.20
2017-06-12T23:56:17.476Z,53.10
2017-06-12T23:58:45.177Z,53.10
